Time;durP1;ratioP1;P1;durP2;ratioP2;P2;SDS_P1;SDS_P2;PMS_P1;PMS_P2;Temp;Humidity;BMP_temperature;BMP_pressure;BME280_temperature;BME280_humidity;BME280_pressure;Samples;Min_cycle;Max_cycle;Signal;HPM_P1;HPM_P2
2022/01/02 00:01:03;;;;;;;6.57;3.33;;;8.40;74.90;;;;;;2365708;53;20975;-75
2022/01/02 00:03:34;;;;;;;6.40;3.17;;;8.40;74.90;;;;;;2369658;53;20952;-75
2022/01/02 00:06:01;;;;;;;8.25;3.60;;;8.40;74.70;;;;;;2372441;53;21021;-75
2022/01/02 00:08:30;;;;;;;9.27;4.20;;;8.40;74.70;;;;;;2340547;54;20970;-75
2022/01/02 00:10:59;;;;;;;11.27;5.85;;;8.40;74.70;;;;;;2529923;53;20973;-75
2022/01/02 00:13:31;;;;;;;11.20;5.22;;;8.40;74.60;;;;;;2597963;52;20986;-75
2022/01/02 00:16:03;;;;;;;13.45;6.28;;;8.40;74.50;;;;;;2458163;52;20946;-75
2022/01/02 00:18:30;;;;;;;;;;;8.30;74.20;;;;;;2373933;53;20994;-74
2022/01/02 00:20:59;;;;;;;8.77;4.40;;;8.30;73.60;;;;;;2369719;53;20066;-75
2022/01/02 00:23:30;;;;;;;7.50;4.15;;;8.30;73.50;;;;;;2405876;52;20951;-75
2022/01/02 00:26:03;;;;;;;6.80;3.80;;;8.30;73.30;;;;;;2360774;53;21469;-75
2022/01/02 00:28:29;;;;;;;8.38;4.12;;;8.20;73.00;;;;;;2367105;53;21055;-75
2022/01/02 00:30:57;;;;;;;7.72;4.72;;;8.10;72.90;;;;;;2603051;52;20989;-74
2022/01/02 00:33:23;;;;;;;7.35;4.35;;;8.10;72.90;;;;;;2355434;53;21012;-75
2022/01/02 00:35:49;;;;;;;8.85;4.68;;;8.00;72.90;;;;;;2347163;53;21480;-75
2022/01/02 00:38:23;;;;;;;7.18;4.28;;;8.00;73.00;;;;;;2374744;52;21005;-75
2022/01/02 00:40:51;;;;;;;9.98;4.75;;;8.00;73.00;;;;;;2370482;53;21002;-75
2022/01/02 00:43:22;;;;;;;8.75;4.85;;;7.90;73.00;;;;;;2456102;52;21068;-74
2022/01/02 00:45:52;;;;;;;9.03;4.70;;;7.90;73.30;;;;;;2409533;52;21900;-75
2022/01/02 00:48:30;;;;;;;6.68;4.20;;;7.90;73.50;;;;;;2358482;53;21043;-75
2022/01/02 00:51:01;;;;;;;7.12;4.35;;;7.80;73.30;;;;;;2343650;54;21039;-75
2022/01/02 00:53:32;;;;;;;8.40;5.18;;;7.80;73.30;;;;;;2327232;54;21040;-75
2022/01/02 00:55:59;;;;;;;7.00;4.37;;;7.80;73.20;;;;;;2362625;53;21022;-74
2022/01/02 00:58:34;;;;;;;7.60;4.85;;;7.70;73.10;;;;;;2370191;53;20938;-74
2022/01/02 01:01:00;;;;;;;9.48;5.00;;;7.70;73.20;;;;;;2567054;52;21449;-75
2022/01/02 01:03:28;;;;;;;6.53;4.32;;;7.70;73.40;;;;;;2452144;53;20989;-75
2022/01/02 01:05:57;;;;;;;5.80;3.60;;;7.70;73.50;;;;;;2370571;53;20946;-74
2022/01/02 01:08:23;;;;;;;8.05;4.60;;;7.60;73.40;;;;;;2367598;52;21003;-75
2022/01/02 01:10:50;;;;;;;8.02;4.78;;;7.60;73.40;;;;;;2341352;53;20996;-75
2022/01/02 01:13:17;;;;;;;6.12;3.90;;;7.60;73.50;;;;;;2353312;53;21462;-75
2022/01/02 01:15:44;;;;;;;8.07;4.18;;;7.50;73.40;;;;;;2358464;53;21376;-75
2022/01/02 01:18:10;;;;;;;7.70;4.15;;;7.50;73.50;;;;;;2372277;53;20932;-75
2022/01/02 01:20:44;;;;;;;6.15;3.47;;;7.50;73.50;;;;;;2370166;53;20985;-74
2022/01/02 01:23:15;;;;;;;6.60;3.62;;;7.50;73.40;;;;;;2374137;53;21679;-74
2022/01/02 01:25:44;;;;;;;5.68;3.28;;;7.50;73.40;;;;;;2485830;53;20910;-74
2022/01/02 01:28:13;;;;;;;6.12;3.20;;;7.40;73.20;;;;;;2435980;52;20986;-74
2022/01/02 01:30:39;;;;;;;6.37;3.30;;;7.40;73.30;;;;;;2366723;53;20990;-74
2022/01/02 01:33:07;;;;;;;5.45;2.83;;;7.40;73.50;;;;;;2370211;53;21005;-75
2022/01/02 01:35:34;;;;;;;6.00;2.78;;;7.30;73.50;;;;;;2370525;53;20919;-74
2022/01/02 01:38:01;;;;;;;5.00;2.95;;;7.30;73.60;;;;;;2615368;52;21038;-74
2022/01/02 01:40:29;;;;;;;5.85;2.90;;;7.30;73.80;;;;;;2423123;52;20962;-74
2022/01/02 01:43:02;;;;;;;4.25;2.53;;;7.30;73.80;;;;;;2350273;53;21016;-74
2022/01/02 01:45:28;;;;;;;4.75;2.60;;;7.30;73.70;;;;;;2370614;53;20981;-74
2022/01/02 01:48:09;;;;;;;5.05;2.37;;;7.30;73.60;;;;;;2353505;52;21050;-74
2022/01/02 01:50:41;;;;;;;4.30;2.40;;;7.20;73.40;;;;;;2560973;52;20954;-74
2022/01/02 01:53:07;;;;;;;5.05;2.45;;;7.20;73.40;;;;;;2370454;53;20977;-74
2022/01/02 01:55:35;;;;;;;4.32;2.47;;;7.20;73.50;;;;;;2370424;53;21842;-74
2022/01/02 01:58:02;;;;;;;5.53;2.47;;;7.20;73.70;;;;;;2350931;54;20981;-74
2022/01/02 02:00:28;;;;;;;5.68;2.42;;;7.20;73.90;;;;;;2351898;53;20985;-75
2022/01/02 02:02:56;;;;;;;3.65;2.10;;;7.20;73.70;;;;;;2363624;53;21031;-74
2022/01/02 02:05:22;;;;;;;4.25;2.62;;;7.10;73.50;;;;;;2433134;53;21760;-75
2022/01/02 02:07:49;;;;;;;4.12;1.98;;;7.10;73.50;;;;;;2369827;53;20914;-74
2022/01/02 02:10:23;;;;;;;3.65;1.85;;;7.10;73.50;;;;;;2367358;53;20975;-75
2022/01/02 02:12:52;;;;;;;3.60;2.10;;;7.10;73.60;;;;;;2340911;54;21809;-74
2022/01/02 02:15:19;;;;;;;4.10;2.25;;;7.10;73.80;;;;;;2348189;53;21001;-74
2022/01/02 02:17:46;;;;;;;4.57;2.58;;;7.10;73.90;;;;;;2372625;53;20934;-74
2022/01/02 02:20:16;;;;;;;4.10;1.90;;;7.00;73.80;;;;;;2463955;53;20975;-74
2022/01/02 02:22:46;;;;;;;4.03;1.95;;;7.00;73.90;;;;;;2347442;53;21613;-74
2022/01/02 02:25:16;;;;;;;3.37;1.80;;;7.00;74.00;;;;;;2350305;53;21448;-74
2022/01/02 02:27:53;;;;;;;4.40;2.33;;;7.00;74.20;;;;;;2370601;53;20993;-74
2022/01/02 02:30:19;;;;;;;4.45;2.03;;;7.00;74.20;;;;;;2370558;53;20934;-74
2022/01/02 02:32:46;;;;;;;5.70;2.20;;;7.00;74.20;;;;;;2370200;53;20946;-74
2022/01/02 02:35:12;;;;;;;4.82;2.17;;;7.00;74.10;;;;;;2351212;53;21485;-74
2022/01/02 02:37:44;;;;;;;5.05;2.33;;;7.00;74.00;;;;;;2538182;52;20939;-74
2022/01/02 02:40:12;;;;;;;4.90;2.35;;;7.00;73.90;;;;;;2363591;53;20963;-74
2022/01/02 02:42:47;;;;;;;4.90;2.72;;;7.00;74.00;;;;;;2352692;53;21695;-74
2022/01/02 02:51:24;;;;;;;5.03;2.15;;;7.00;73.50;;;;;;2357773;53;20903;-74
2022/01/02 02:53:53;;;;;;;4.45;2.28;;;7.00;73.50;;;;;;2500663;52;21003;-75
2022/01/02 02:56:29;;;;;;;7.47;2.60;;;6.90;73.50;;;;;;2336984;54;21082;-74
2022/01/02 02:58:57;;;;;;;4.70;2.40;;;6.90;73.50;;;;;;2369560;53;20965;-74
2022/01/02 03:01:28;;;;;;;4.55;2.53;;;6.90;73.60;;;;;;2366793;53;21936;-74
2022/01/02 03:03:54;;;;;;;5.03;2.37;;;6.90;73.90;;;;;;2355632;53;20998;-74
2022/01/02 03:06:20;;;;;;;5.57;2.62;;;6.90;74.00;;;;;;2510886;52;20954;-74
2022/01/02 03:08:47;;;;;;;4.03;2.10;;;6.90;74.00;;;;;;2518467;52;20958;-74
2022/01/02 03:11:15;;;;;;;3.45;1.90;;;6.80;73.90;;;;;;2328320;54;20935;-74
2022/01/02 03:13:42;;;;;;;4.62;2.03;;;6.80;73.70;;;;;;2469505;52;20928;-75
2022/01/02 03:16:08;;;;;;;5.43;1.83;;;6.80;73.50;;;;;;2345484;54;20942;-74
2022/01/02 03:18:37;;;;;;;4.78;2.15;;;6.80;73.30;;;;;;2358837;53;20924;-74
2022/01/02 03:21:03;;;;;;;4.75;2.30;;;6.80;73.30;;;;;;2357378;53;21015;-74
2022/01/02 03:23:30;;;;;;;4.93;2.35;;;6.80;73.30;;;;;;2356118;53;20968;-74
2022/01/02 03:25:57;;;;;;;5.32;2.15;;;6.70;73.10;;;;;;2370942;53;21014;-74
2022/01/02 03:28:23;;;;;;;5.60;2.90;;;6.70;73.20;;;;;;2608740;52;20935;-74
2022/01/02 03:30:52;;;;;;;4.15;2.10;;;6.70;73.20;;;;;;2358817;53;20915;-74
2022/01/02 03:33:18;;;;;;;3.60;2.00;;;6.70;73.20;;;;;;2370651;53;20973;-74
2022/01/02 03:35:45;;;;;;;4.53;2.42;;;6.70;73.30;;;;;;2512863;53;20955;-74
2022/01/02 03:38:11;;;;;;;5.50;2.53;;;6.60;73.40;;;;;;2370142;53;21167;-74
2022/01/02 03:40:38;;;;;;;5.25;2.50;;;6.60;73.60;;;;;;2351028;53;21065;-74
2022/01/02 03:43:04;;;;;;;4.68;2.45;;;6.60;73.80;;;;;;2388820;52;20942;-74
2022/01/02 03:45:31;;;;;;;4.50;2.28;;;6.60;74.10;;;;;;2359107;53;20979;-74
2022/01/02 03:47:57;;;;;;;5.03;2.60;;;6.60;74.20;;;;;;2415254;53;20953;-74
2022/01/02 03:50:23;;;;;;;4.55;2.35;;;6.60;74.50;;;;;;2455022;52;20918;-74
2022/01/02 03:52:49;;;;;;;4.87;2.28;;;6.70;74.70;;;;;;2370792;53;20926;-75
2022/01/02 03:55:16;;;;;;;4.62;2.10;;;6.70;74.80;;;;;;2453754;52;21060;-74
2022/01/02 03:57:42;;;;;;;4.62;2.10;;;6.70;74.90;;;;;;2339850;53;20977;-74
2022/01/02 04:00:11;;;;;;;4.43;2.30;;;6.70;74.90;;;;;;2427761;52;20961;-74
2022/01/02 04:02:38;;;;;;;3.90;2.22;;;6.80;75.10;;;;;;2481568;52;20935;-75
2022/01/02 04:05:06;;;;;;;4.68;2.53;;;6.80;75.10;;;;;;2356652;54;21571;-74
2022/01/02 04:07:32;;;;;;;4.28;2.12;;;6.80;75.00;;;;;;2354468;53;21698;-74
2022/01/02 04:10:03;;;;;;;4.75;2.53;;;6.80;74.90;;;;;;2370523;53;21036;-74
2022/01/02 04:12:29;;;;;;;5.12;2.33;;;6.80;74.90;;;;;;2370358;53;21069;-74
2022/01/02 04:14:55;;;;;;;5.53;2.67;;;6.80;74.90;;;;;;2370443;53;20925;-74
2022/01/02 04:17:23;;;;;;;6.40;3.20;;;6.80;74.80;;;;;;2369504;53;21003;-74
2022/01/02 04:19:51;;;;;;;6.35;3.28;;;6.90;74.80;;;;;;2351996;54;20961;-74
2022/01/02 04:22:17;;;;;;;5.55;2.47;;;6.90;74.60;;;;;;2350624;53;21000;-74
2022/01/02 04:24:44;;;;;;;4.62;2.47;;;6.90;74.40;;;;;;2370878;53;21361;-74
2022/01/02 04:27:11;;;;;;;4.18;2.33;;;6.90;74.30;;;;;;2419176;52;21035;-74
2022/01/02 04:29:39;;;;;;;4.95;2.17;;;6.80;74.20;;;;;;2360448;53;21443;-74
2022/01/02 04:32:05;;;;;;;4.28;2.30;;;6.80;74.10;;;;;;2371028;53;20938;-74
2022/01/02 04:34:34;;;;;;;4.10;2.25;;;6.80;74.00;;;;;;2370457;53;20972;-74
2022/01/02 04:37:00;;;;;;;4.68;2.58;;;6.80;73.90;;;;;;2369924;53;20950;-74
2022/01/02 04:39:26;;;;;;;3.90;1.92;;;6.80;73.90;;;;;;2370459;53;20938;-74
2022/01/02 04:41:53;;;;;;;3.92;2.20;;;6.80;73.90;;;;;;2356866;53;20932;-74
2022/01/02 04:44:20;;;;;;;4.62;2.17;;;6.80;74.00;;;;;;2363783;53;20989;-74
2022/01/02 04:46:47;;;;;;;3.85;2.05;;;6.80;74.20;;;;;;2371011;53;20902;-74
2022/01/02 04:49:16;;;;;;;4.50;2.10;;;6.80;74.30;;;;;;2367147;53;21819;-74
2022/01/02 04:51:43;;;;;;;5.05;2.20;;;6.80;74.40;;;;;;2363205;53;20966;-74
2022/01/02 04:54:09;;;;;;;4.57;2.40;;;6.80;74.40;;;;;;2426393;52;21487;-74
2022/01/02 04:56:35;;;;;;;5.57;2.40;;;6.80;74.50;;;;;;2370433;53;20965;-74
2022/01/02 04:59:02;;;;;;;3.47;1.87;;;6.80;74.70;;;;;;2370627;53;20934;-74
2022/01/02 05:01:31;;;;;;;4.47;2.33;;;6.80;74.70;;;;;;2370441;53;20942;-74
2022/01/02 05:03:57;;;;;;;4.62;2.03;;;6.90;75.00;;;;;;2350526;54;20958;-74
2022/01/02 05:06:23;;;;;;;4.12;2.00;;;6.90;75.00;;;;;;2345982;53;20937;-74
2022/01/02 05:08:50;;;;;;;3.53;1.95;;;6.90;75.10;;;;;;2364279;53;20962;-74
2022/01/02 05:11:17;;;;;;;4.40;2.17;;;6.90;75.10;;;;;;2356598;53;21074;-74
2022/01/02 05:13:43;;;;;;;3.53;1.80;;;6.90;75.10;;;;;;2496899;52;21839;-75
2022/01/02 05:16:10;;;;;;;4.05;2.05;;;7.00;75.20;;;;;;2370830;53;21053;-74
2022/01/02 05:18:36;;;;;;;4.60;2.40;;;7.00;75.10;;;;;;2370560;53;20994;-75
2022/01/02 05:21:03;;;;;;;4.20;2.08;;;7.00;75.20;;;;;;2370310;53;20930;-75
2022/01/02 05:23:29;;;;;;;4.20;2.00;;;7.00;75.20;;;;;;2594630;52;21723;-74
2022/01/02 05:25:56;;;;;;;4.87;2.30;;;7.00;75.10;;;;;;2370484;53;21038;-75
2022/01/02 05:28:23;;;;;;;4.55;2.37;;;7.00;74.90;;;;;;2415978;53;22984;-74
2022/01/02 05:30:49;;;;;;;3.58;1.70;;;7.00;74.90;;;;;;2351155;54;20949;-74
2022/01/02 05:33:16;;;;;;;3.90;2.03;;;7.10;74.80;;;;;;2370900;53;20948;-75
2022/01/02 05:35:42;;;;;;;4.07;2.35;;;7.00;74.60;;;;;;2367262;53;21414;-74
2022/01/02 05:38:09;;;;;;;4.05;2.05;;;7.10;74.70;;;;;;2338935;54;21300;-75
2022/01/02 05:40:35;;;;;;;4.37;2.17;;;7.00;74.70;;;;;;2345676;53;20987;-75
2022/01/02 05:43:03;;;;;;;3.60;1.80;;;7.10;74.80;;;;;;2394566;52;20943;-75
2022/01/02 05:45:30;;;;;;;4.05;1.87;;;7.10;74.90;;;;;;2364004;53;21597;-75
2022/01/02 05:47:56;;;;;;;5.05;2.10;;;7.00;74.90;;;;;;2364491;53;20896;-75
2022/01/02 05:50:24;;;;;;;4.75;2.30;;;7.10;75.20;;;;;;2357532;53;20942;-75
2022/01/02 05:52:51;;;;;;;3.92;1.95;;;7.10;75.20;;;;;;2380660;52;21038;-75
2022/01/02 05:55:17;;;;;;;3.40;1.77;;;7.10;75.30;;;;;;2356247;53;20946;-74
2022/01/02 05:57:45;;;;;;;4.22;1.65;;;7.20;75.50;;;;;;2369935;53;20971;-74
2022/01/02 06:00:33;;;;;;;2.78;1.37;;;7.20;75.60;;;;;;2333573;54;21045;-74
2022/01/02 06:02:59;;;;;;;4.07;1.77;;;7.30;75.70;;;;;;2364731;53;20947;-74
2022/01/02 06:05:25;;;;;;;3.58;1.65;;;7.30;75.80;;;;;;2337942;54;21007;-75
2022/01/02 06:07:52;;;;;;;3.95;1.75;;;7.30;75.90;;;;;;2492676;52;20950;-75
2022/01/02 06:10:18;;;;;;;3.45;1.65;;;7.40;76.00;;;;;;2425357;53;21061;-74
2022/01/02 06:12:46;;;;;;;4.47;2.20;;;7.40;76.00;;;;;;2450181;52;20975;-75
2022/01/02 06:15:12;;;;;;;3.92;2.03;;;7.40;75.90;;;;;;2354948;53;20942;-74
2022/01/02 06:17:38;;;;;;;4.00;1.77;;;7.50;76.00;;;;;;2412537;52;20985;-75
2022/01/02 06:20:05;;;;;;;3.83;1.92;;;7.50;75.90;;;;;;2623856;52;20926;-75
2022/01/02 06:22:31;;;;;;;3.40;1.80;;;7.50;75.80;;;;;;2371118;53;20945;-74
2022/01/02 06:24:58;;;;;;;3.90;1.90;;;7.50;75.60;;;;;;2349418;53;21100;-74
2022/01/02 06:27:25;;;;;;;3.62;1.95;;;7.50;75.40;;;;;;2365915;53;21909;-75
2022/01/02 06:29:55;;;;;;;3.20;1.67;;;7.50;75.40;;;;;;2350981;53;20999;-75
2022/01/02 06:32:21;;;;;;;3.42;1.60;;;7.60;75.30;;;;;;2371125;52;20925;-74
2022/01/02 06:34:47;;;;;;;3.03;1.52;;;7.60;75.30;;;;;;2614897;52;21090;-74
2022/01/02 06:37:13;;;;;;;7.28;1.83;;;7.60;75.20;;;;;;2353586;53;20958;-74
2022/01/02 06:39:40;;;;;;;4.30;1.62;;;7.60;75.10;;;;;;2400903;52;20939;-75
2022/01/02 06:42:06;;;;;;;3.50;1.80;;;7.60;75.00;;;;;;2343912;54;21093;-75
2022/01/02 06:44:33;;;;;;;3.45;1.70;;;7.60;74.90;;;;;;2411228;52;21108;-74
2022/01/02 06:46:59;;;;;;;3.65;1.67;;;7.60;74.70;;;;;;2338686;54;20939;-74
2022/01/02 06:49:25;;;;;;;3.90;1.95;;;7.60;74.60;;;;;;2341710;53;20935;-74
2022/01/02 06:51:51;;;;;;;4.10;2.30;;;7.60;74.70;;;;;;2370329;53;20961;-74
2022/01/02 06:54:20;;;;;;;5.32;2.50;;;7.60;74.90;;;;;;2372932;53;20934;-74
2022/01/02 06:56:47;;;;;;;4.65;2.35;;;7.60;75.20;;;;;;2344126;53;21059;-75
2022/01/02 06:59:13;;;;;;;4.43;2.35;;;7.60;75.40;;;;;;2352043;53;20970;-74
2022/01/02 07:01:39;;;;;;;4.45;2.45;;;7.60;75.40;;;;;;2443889;52;21436;-74
2022/01/02 07:04:05;;;;;;;3.92;2.25;;;7.60;75.50;;;;;;2460831;53;20979;-74
2022/01/02 07:06:33;;;;;;;4.10;1.95;;;7.60;75.40;;;;;;2340658;53;20934;-74
2022/01/02 07:09:02;;;;;;;5.00;2.37;;;7.60;75.20;;;;;;2369994;53;21466;-75
2022/01/02 07:11:30;;;;;;;4.05;2.25;;;7.70;75.20;;;;;;2345798;53;21041;-74
2022/01/02 07:13:56;;;;;;;3.97;2.10;;;7.60;74.90;;;;;;2353532;53;20994;-75
2022/01/02 07:16:22;;;;;;;4.20;2.37;;;7.60;74.80;;;;;;2361556;53;20935;-74
2022/01/02 07:18:49;;;;;;;3.70;2.28;;;7.60;74.70;;;;;;2358980;53;20970;-75
2022/01/02 07:21:17;;;;;;;4.43;2.30;;;7.60;74.50;;;;;;2369959;53;20954;-74
2022/01/02 07:23:44;;;;;;;4.32;2.28;;;7.60;74.40;;;;;;2350787;54;20939;-75
2022/01/02 07:26:14;;;;;;;4.95;2.67;;;7.60;74.40;;;;;;2365723;53;21908;-75
2022/01/02 07:28:40;;;;;;;4.82;3.05;;;7.60;74.40;;;;;;2351152;53;20995;-75
2022/01/02 07:31:06;;;;;;;4.68;2.55;;;7.60;74.50;;;;;;2356240;53;21668;-74
2022/01/02 07:33:33;;;;;;;6.25;3.42;;;7.60;74.50;;;;;;2420289;52;20963;-74
2022/01/02 07:36:01;;;;;;;5.68;3.62;;;7.60;74.50;;;;;;2433827;53;20989;-75
2022/01/02 07:38:29;;;;;;;6.82;3.95;;;7.60;75.30;;;;;;2368666;53;20969;-74
2022/01/02 07:40:56;;;;;;;7.43;4.47;;;7.60;74.70;;;;;;2369749;53;21069;-74
2022/01/02 07:43:22;;;;;;;6.28;4.10;;;7.60;74.90;;;;;;2452118;52;21028;-74
2022/01/02 07:45:49;;;;;;;7.00;4.20;;;7.60;75.00;;;;;;2438338;53;20987;-75
2022/01/02 07:48:15;;;;;;;7.65;4.20;;;7.60;75.10;;;;;;2354537;53;20964;-74
2022/01/02 07:50:41;;;;;;;9.35;4.90;;;7.60;75.20;;;;;;2345531;53;20957;-75
2022/01/02 07:53:08;;;;;;;13.07;6.55;;;7.60;75.30;;;;;;2356502;53;21008;-75
2022/01/02 07:55:34;;;;;;;11.80;6.30;;;7.60;75.40;;;;;;2369900;53;20950;-74
2022/01/02 07:58:00;;;;;;;13.80;8.02;;;7.60;75.50;;;;;;2370067;53;20993;-74
2022/01/02 08:00:28;;;;;;;32.20;17.60;;;7.60;75.60;;;;;;2386403;52;20995;-74
2022/01/02 08:02:54;;;;;;;35.95;20.95;;;7.70;75.80;;;;;;2359568;53;20960;-74
2022/01/02 08:05:21;;;;;;;32.80;19.70;;;7.70;75.90;;;;;;2341604;53;20953;-74
2022/01/02 08:07:47;;;;;;;28.45;17.12;;;7.70;76.00;;;;;;2369763;53;21395;-75
2022/01/02 08:10:16;;;;;;;30.58;17.77;;;7.80;76.20;;;;;;2374598;52;20993;-75
2022/01/02 08:12:43;;;;;;;30.77;18.87;;;7.80;76.20;;;;;;2593879;52;21015;-75
2022/01/02 08:15:12;;;;;;;27.87;17.55;;;7.80;76.30;;;;;;2595092;52;21045;-74
2022/01/02 08:17:39;;;;;;;27.58;15.15;;;7.90;76.60;;;;;;2337828;54;20958;-74
2022/01/02 08:20:06;;;;;;;26.05;14.30;;;7.90;76.80;;;;;;2367743;53;20946;-74
2022/01/02 08:22:32;;;;;;;21.87;13.02;;;8.00;77.10;;;;;;2559421;53;20933;-75
2022/01/02 08:24:59;;;;;;;19.00;11.00;;;8.10;77.60;;;;;;2506630;52;20934;-75
2022/01/02 08:27:25;;;;;;;16.62;9.75;;;8.10;77.80;;;;;;2393668;53;21495;-74
2022/01/02 08:29:51;;;;;;;18.42;9.40;;;8.20;78.20;;;;;;2413397;53;21806;-75
2022/01/02 08:32:18;;;;;;;15.25;8.23;;;8.30;78.50;;;;;;2358747;52;20930;-75
2022/01/02 08:34:44;;;;;;;14.82;8.93;;;8.40;78.60;;;;;;2387382;52;20958;-75
2022/01/02 08:37:13;;;;;;;17.27;9.70;;;8.40;78.50;;;;;;2369702;53;20970;-75
2022/01/02 08:39:41;;;;;;;13.65;8.43;;;8.50;78.40;;;;;;2406529;52;20949;-75
2022/01/02 08:42:08;;;;;;;12.95;8.15;;;8.60;78.30;;;;;;2366420;53;20938;-75
2022/01/02 08:44:36;;;;;;;12.50;7.47;;;8.70;78.30;;;;;;2370000;53;20926;-75
2022/01/02 08:47:03;;;;;;;12.55;8.25;;;8.70;78.20;;;;;;2359156;53;21017;-75
2022/01/02 08:49:29;;;;;;;11.98;7.45;;;8.80;78.40;;;;;;2483357;53;20950;-74
2022/01/02 08:51:56;;;;;;;10.52;7.07;;;8.90;78.70;;;;;;2418604;52;21238;-75
2022/01/02 08:54:22;;;;;;;9.55;6.32;;;8.90;78.90;;;;;;2368084;53;21743;-74
2022/01/02 08:56:49;;;;;;;8.68;6.07;;;9.00;79.00;;;;;;2350748;53;21001;-75
2022/01/02 08:59:18;;;;;;;10.95;7.53;;;9.10;79.20;;;;;;2369845;53;20933;-75
2022/01/02 09:01:45;;;;;;;10.25;6.85;;;9.20;79.30;;;;;;2369569;53;20957;-74
2022/01/02 09:04:11;;;;;;;12.40;7.95;;;9.30;79.40;;;;;;2446717;52;21037;-75
2022/01/02 09:06:38;;;;;;;10.85;7.45;;;9.40;79.50;;;;;;2346985;53;20950;-75
2022/01/02 09:09:04;;;;;;;11.40;7.35;;;9.40;79.50;;;;;;2369770;53;20973;-75
2022/01/02 09:11:30;;;;;;;11.60;7.07;;;9.50;79.50;;;;;;2369170;53;21034;-75
2022/01/02 09:13:56;;;;;;;12.55;7.40;;;9.60;79.50;;;;;;2369512;53;20989;-75
2022/01/02 09:16:23;;;;;;;12.20;7.03;;;9.70;79.50;;;;;;2478041;52;21003;-75
2022/01/02 09:18:49;;;;;;;11.48;7.30;;;9.80;79.50;;;;;;2344302;53;21034;-75
2022/01/02 09:21:16;;;;;;;10.63;6.90;;;9.80;79.40;;;;;;2369719;53;20941;-74
2022/01/02 09:23:43;;;;;;;10.45;6.70;;;9.80;79.20;;;;;;2561890;52;20954;-74
2022/01/02 09:26:10;;;;;;;12.50;7.03;;;10.00;78.20;;;;;;2369619;53;22047;-75
2022/01/02 09:28:36;;;;;;;10.98;7.03;;;10.00;77.90;;;;;;2369384;53;21334;-75
2022/01/02 09:31:02;;;;;;;9.73;6.53;;;10.10;77.70;;;;;;2565796;52;20929;-75
2022/01/02 09:33:33;;;;;;;12.55;6.93;;;10.10;77.40;;;;;;2368991;53;20945;-75
2022/01/02 09:35:59;;;;;;;10.07;7.28;;;10.20;77.30;;;;;;2371996;53;20958;-75
2022/01/02 09:38:26;;;;;;;10.00;6.37;;;10.20;77.10;;;;;;2369550;53;20957;-75
2022/01/02 09:40:52;;;;;;;9.77;6.82;;;10.30;77.20;;;;;;2369324;53;21021;-75
2022/01/02 09:43:30;;;;;;;10.98;6.87;;;10.30;77.20;;;;;;2397398;52;21825;-75
2022/01/02 09:45:56;;;;;;;9.73;6.53;;;10.30;76.90;;;;;;2369197;53;20918;-76
2022/01/02 09:48:23;;;;;;;9.73;6.25;;;10.40;77.20;;;;;;2358163;53;21037;-75
2022/01/02 09:50:52;;;;;;;10.27;6.55;;;10.40;77.20;;;;;;2526997;52;20966;-75
2022/01/02 09:53:19;;;;;;;8.52;4.75;;;10.40;77.20;;;;;;2347775;53;21002;-75
2022/01/02 09:55:45;;;;;;;6.20;4.15;;;10.50;77.30;;;;;;2438160;52;20998;-75
2022/01/02 09:58:14;;;;;;;6.22;4.10;;;10.50;77.50;;;;;;2377151;52;21333;-75
2022/01/02 10:00:43;;;;;;;6.57;3.67;;;10.60;77.60;;;;;;2408539;52;21955;-75
2022/01/02 10:03:09;;;;;;;4.55;2.45;;;10.60;77.80;;;;;;2358180;53;20923;-75
2022/01/02 10:05:56;;;;;;;4.78;2.60;;;10.70;78.00;;;;;;2355714;53;21847;-75
2022/01/02 10:08:26;;;;;;;6.32;2.72;;;10.80;77.80;;;;;;2368322;53;20974;-75
2022/01/02 10:11:07;;;;;;;8.65;4.47;;;10.80;78.20;;;;;;2357118;53;20969;-75
2022/01/02 10:13:43;;;;;;;9.30;5.60;;;10.90;78.10;;;;;;2338412;53;21118;-75
2022/01/02 10:17:10;;;;;;;7.53;4.45;;;11.00;77.90;;;;;;2365978;53;20964;-75
2022/01/02 10:19:39;;;;;;;8.25;4.50;;;11.10;77.00;;;;;;2416086;52;22074;-75
2022/01/02 10:22:06;;;;;;;7.47;3.72;;;11.10;77.70;;;;;;2368210;53;21629;-76
2022/01/02 10:24:33;;;;;;;8.35;4.07;;;11.20;77.60;;;;;;2619089;52;21042;-75
2022/01/02 10:27:19;;;;;;;5.70;3.25;;;11.20;77.50;;;;;;2367713;53;25486;-75
2022/01/02 10:30:01;;;;;;;6.97;3.60;;;11.20;76.80;;;;;;2451440;52;20942;-75
2022/01/02 10:32:38;;;;;;;5.22;2.53;;;11.30;77.40;;;;;;2433737;52;20942;-76
2022/01/02 10:35:16;;;;;;;3.95;2.12;;;11.40;78.10;;;;;;2401135;52;21344;-75
2022/01/02 10:38:04;;;;;;;4.10;2.30;;;11.50;78.70;;;;;;2372668;53;21048;-75
2022/01/02 10:40:36;;;;;;;4.82;2.40;;;11.60;78.90;;;;;;2351724;53;20927;-75
2022/01/02 10:43:05;;;;;;;3.03;1.73;;;11.80;80.10;;;;;;2367260;53;21041;-76
2022/01/02 10:45:47;;;;;;;4.60;2.15;;;11.90;80.90;;;;;;2396291;53;21584;-75
2022/01/02 10:48:15;;;;;;;3.97;2.12;;;12.10;80.30;;;;;;2342306;53;20957;-75
2022/01/02 10:51:05;;;;;;;4.18;1.90;;;12.20;80.40;;;;;;2334965;53;21071;-75
2022/01/02 10:53:32;;;;;;;4.40;2.20;;;12.40;79.70;;;;;;2359968;53;20945;-75
2022/01/02 10:55:58;;;;;;;3.50;1.70;;;12.50;80.30;;;;;;2420015;52;21108;-75
2022/01/02 10:58:25;;;;;;;3.47;1.70;;;12.60;80.30;;;;;;2344734;53;20973;-75
2022/01/02 11:00:51;;;;;;;4.00;1.75;;;12.80;80.30;;;;;;2368666;53;20963;-76
2022/01/02 11:03:23;;;;;;;3.62;1.80;;;12.90;80.50;;;;;;2356635;52;20951;-76
2022/01/02 11:05:52;;;;;;;3.22;1.70;;;13.00;80.00;;;;;;2369186;53;21001;-76
2022/01/02 11:08:18;;;;;;;4.07;1.87;;;13.10;80.00;;;;;;2370521;53;20950;-76
2022/01/02 11:10:44;;;;;;;2.97;1.60;;;13.20;80.00;;;;;;2393004;53;20986;-76
2022/01/02 11:13:11;;;;;;;4.15;1.92;;;13.40;79.70;;;;;;2371115;53;20989;-75
2022/01/02 11:15:37;;;;;;;3.62;1.70;;;13.50;79.80;;;;;;2366529;53;21377;-76
2022/01/02 11:18:06;;;;;;;3.87;2.00;;;13.60;79.80;;;;;;2355713;53;20960;-76
2022/01/02 11:20:33;;;;;;;5.57;1.92;;;13.70;79.10;;;;;;2354000;53;21537;-76
2022/01/02 11:24:38;;;;;;;3.58;1.73;;;13.80;78.70;;;;;;2366862;53;21211;-76
2022/01/02 11:27:18;;;;;;;2.80;1.50;;;13.80;77.60;;;;;;2389054;52;21005;-75
2022/01/02 11:29:44;;;;;;;3.40;1.90;;;14.00;76.80;;;;;;2370511;53;20926;-75
2022/01/02 11:32:21;;;;;;;3.33;1.67;;;14.00;77.60;;;;;;2369429;53;20946;-75
2022/01/02 11:34:47;;;;;;;3.00;1.45;;;14.10;76.60;;;;;;2395151;54;21009;-76
2022/01/02 11:37:24;;;;;;;4.65;1.50;;;14.10;77.70;;;;;;2380838;53;21032;-76
2022/01/02 11:39:59;;;;;;;2.90;1.23;;;14.20;76.70;;;;;;2334711;54;20937;-75
2022/01/02 11:44:17;;;;;;;2.95;1.25;;;14.30;77.30;;;;;;2349711;53;20992;-76
2022/01/02 11:46:59;;;;;;;2.92;1.25;;;14.40;75.70;;;;;;2407607;52;20928;-75
2022/01/02 11:49:36;;;;;;;3.15;1.70;;;14.50;76.40;;;;;;2486550;52;20942;-75
2022/01/02 11:52:07;;;;;;;3.42;1.80;;;14.60;78.30;;;;;;2364521;53;20946;-76
2022/01/02 11:54:41;;;;;;;2.85;1.40;;;14.60;78.30;;;;;;2364790;53;20993;-76
2022/01/02 11:57:49;;;;;;;2.87;1.40;;;14.70;77.80;;;;;;2363991;53;21065;-76
2022/01/02 12:00:31;;;;;;;3.17;1.48;;;14.90;75.70;;;;;;2355499;53;21478;-77
2022/01/02 12:02:58;;;;;;;3.33;1.20;;;15.00;76.70;;;;;;2364187;53;21088;-76
2022/01/02 12:05:24;;;;;;;2.80;1.35;;;15.10;78.60;;;;;;2406026;52;21803;-76
2022/01/02 12:07:53;;;;;;;3.30;1.50;;;15.10;78.10;;;;;;2363073;53;21546;-75
2022/01/02 12:10:31;;;;;;;2.42;1.12;;;15.20;78.40;;;;;;2344929;53;20922;-76
2022/01/02 12:13:13;;;;;;;4.45;2.15;;;15.30;78.20;;;;;;2372033;53;20997;-76
2022/01/02 12:16:33;;;;;;;3.95;1.77;;;15.40;76.50;;;;;;2346201;53;21525;-76
2022/01/02 12:19:01;;;;;;;3.37;1.48;;;15.50;74.60;;;;;;2340938;53;20987;-75
2022/01/02 12:21:27;;;;;;;4.55;1.48;;;15.60;78.00;;;;;;2329071;54;21003;-76
2022/01/02 12:23:53;;;;;;;2.65;1.00;;;15.70;77.80;;;;;;2420795;53;21023;-76
2022/01/02 12:26:28;;;;;;;3.65;1.77;;;15.80;77.50;;;;;;2343562;53;20990;-75
2022/01/02 12:29:01;;;;;;;2.40;0.95;;;15.90;77.40;;;;;;2343136;54;21949;-76
2022/01/02 12:31:49;;;;;;;2.60;1.20;;;16.00;77.10;;;;;;2334667;54;20946;-76
2022/01/02 12:34:19;;;;;;;2.90;1.40;;;16.10;75.40;;;;;;2370310;53;21041;-76
2022/01/02 12:36:52;;;;;;;2.92;1.50;;;16.20;77.70;;;;;;2360251;52;20982;-75
2022/01/02 12:39:34;;;;;;;3.25;1.60;;;16.30;77.00;;;;;;2377859;52;21471;-76
2022/01/02 12:42:11;;;;;;;3.62;1.30;;;16.30;76.40;;;;;;2422281;53;20974;-76
2022/01/02 12:44:37;;;;;;;6.12;2.87;;;16.50;77.10;;;;;;2395057;52;20973;-76
2022/01/02 12:47:05;;;;;;;20.90;9.77;;;16.50;77.70;;;;;;2362676;53;20921;-77
2022/01/02 12:49:35;;;;;;;13.20;6.07;;;16.60;77.20;;;;;;2362779;53;21909;-76
2022/01/02 12:52:10;;;;;;;7.22;3.55;;;16.70;77.40;;;;;;2343122;53;20954;-76
2022/01/02 12:54:47;;;;;;;6.62;2.90;;;16.80;77.50;;;;;;2389010;52;21482;-77
2022/01/02 12:57:14;;;;;;;3.85;1.67;;;17.00;76.50;;;;;;2353930;53;21002;-77
2022/01/02 12:59:45;;;;;;;4.50;1.87;;;17.10;77.70;;;;;;2390506;52;20962;-76
2022/01/02 13:02:12;;;;;;;3.35;1.35;;;17.20;76.40;;;;;;2430031;52;21013;-76
2022/01/02 13:05:00;;;;;;;3.92;1.85;;;17.40;77.90;;;;;;2343511;53;20997;-77
2022/01/02 13:07:27;;;;;;;2.75;1.35;;;17.50;76.90;;;;;;2351621;52;21006;-76
2022/01/02 13:10:01;;;;;;;3.40;1.40;;;17.60;77.10;;;;;;2359507;53;20974;-76
2022/01/02 13:12:35;;;;;;;3.58;1.37;;;17.70;75.90;;;;;;2345240;53;21510;-76